Time;durP1;ratioP1;P1;durP2;ratioP2;P2;SDS_P1;SDS_P2;PMS_P1;PMS_P2;Temp;Humidity;BMP_temperature;BMP_pressure;BME280_temperature;BME280_humidity;BME280_pressure;Samples;Min_cycle;Max_cycle;Signal;HPM_P1;HPM_P2
2022/07/10 00:00:56;;;;;;;1218.30;506.42;;;;;;;;;;5110873;28;20059;-70
2022/07/10 00:05:49;;;;;;;1208.28;497.48;;;;;;;;;;5112048;27;20445;-72
2022/07/10 00:08:15;;;;;;;1188.78;523.25;;;;;;;;;;5111072;28;20023;-71
2022/07/10 00:11:15;;;;;;;1151.90;533.53;;;;;;;;;;5111831;27;20381;-69
2022/07/10 00:13:41;;;;;;;1166.90;532.70;;;;;;;;;;5111002;28;20023;-69
2022/07/10 00:17:39;;;;;;;1157.18;529.85;;;;;;;;;;5112104;27;20389;-69
2022/07/10 00:20:06;;;;;;;1154.57;548.17;;;;;;;;;;5110142;28;20377;-69
2022/07/10 00:22:34;;;;;;;1144.95;551.60;;;;;;;;;;5109619;28;20043;-70
2022/07/10 00:25:04;;;;;;;1159.32;544.95;;;;;;;;;;5109933;28;20099;-69
2022/07/10 00:28:55;;;;;;;1151.07;533.22;;;;;;;;;;5110920;27;20397;-71
2022/07/10 00:31:21;;;;;;;1154.28;537.55;;;;;;;;;;5111364;28;20024;-69
2022/07/10 00:35:29;;;;;;;1148.00;539.63;;;;;;;;;;5111614;27;20420;-70
2022/07/10 00:37:55;;;;;;;1149.88;553.78;;;;;;;;;;5110088;28;20028;-70
2022/07/10 00:40:22;;;;;;;1143.65;538.30;;;;;;;;;;5110019;28;20027;-70
2022/07/10 00:42:48;;;;;;;1163.03;530.80;;;;;;;;;;5109583;28;20426;-70
2022/07/10 00:45:14;;;;;;;1132.25;538.78;;;;;;;;;;5109847;28;20026;-71
2022/07/10 00:49:17;;;;;;;1155.70;529.40;;;;;;;;;;5111095;27;20321;-69
2022/07/10 00:51:44;;;;;;;1152.60;533.53;;;;;;;;;;5111295;28;20031;-70
2022/07/10 00:54:10;;;;;;;1159.15;526.97;;;;;;;;;;5111713;28;20027;-70
2022/07/10 00:56:37;;;;;;;1194.72;515.33;;;;;;;;;;5110856;28;20030;-70
2022/07/10 01:01:36;;;;;;;1173.07;506.80;;;;;;;;;;5111528;27;20450;-69
2022/07/10 01:06:43;;;;;;;1166.55;499.83;;;;;;;;;;5111806;27;20931;-70
2022/07/10 01:09:54;;;;;;;1168.70;519.83;;;;;;;;;;5111478;27;20396;-69
2022/07/10 01:12:21;;;;;;;1166.00;527.28;;;;;;;;;;5111364;28;20027;-69
2022/07/10 01:14:47;;;;;;;1174.15;517.10;;;;;;;;;;5111637;28;20054;-69
2022/07/10 01:17:13;;;;;;;1166.03;526.70;;;;;;;;;;5109729;28;20020;-69
2022/07/10 01:20:18;;;;;;;1178.28;512.55;;;;;;;;;;5111848;27;20430;-70
2022/07/10 01:26:02;;;;;;;1198.18;493.17;;;;;;;;;;5090658;27;20421;-69
2022/07/10 01:33:39;;;;;;;1185.30;498.85;;;;;;;;;;5111892;27;20470;-70
2022/07/10 01:37:22;;;;;;;1110.20;542.95;;;;;;;;;;5111431;27;20423;-69
2022/07/10 01:39:48;;;;;;;1143.30;525.10;;;;;;;;;;5110966;28;20016;-70
2022/07/10 01:43:21;;;;;;;1178.20;505.17;;;;;;;;;;5111743;27;20713;-69
2022/07/10 01:45:48;;;;;;;1227.93;499.75;;;;;;;;;;5110919;28;20020;-70
2022/07/10 01:50:46;;;;;;;1191.97;490.98;;;;;;;;;;5111777;27;20416;-70
2022/07/10 01:53:31;;;;;;;1287.57;455.65;;;;;;;;;;5111210;27;20459;-69
2022/07/10 01:55:57;;;;;;;1256.63;448.83;;;;;;;;;;5111270;28;20030;-69
2022/07/10 01:58:23;;;;;;;1270.35;474.10;;;;;;;;;;5109946;28;20024;-70
2022/07/10 02:05:52;;;;;;;1249.03;456.98;;;;;;;;;;5111440;28;20086;-71
2022/07/10 02:12:10;;;;;;;1198.10;479.55;;;;;;;;;;5111538;27;20461;-69
2022/07/10 02:14:36;;;;;;;1178.43;504.77;;;;;;;;;;5109692;28;20038;-69
2022/07/10 02:17:03;;;;;;;1181.65;514.90;;;;;;;;;;5111266;28;20519;-70
2022/07/10 02:19:29;;;;;;;1188.13;505.20;;;;;;;;;;5111371;28;20047;-69
2022/07/10 02:22:34;;;;;;;1189.03;487.60;;;;;;;;;;5111641;27;20473;-70
2022/07/10 02:25:01;;;;;;;1194.82;488.25;;;;;;;;;;5111345;28;20502;-69
2022/07/10 02:27:27;;;;;;;1227.45;482.90;;;;;;;;;;5110856;28;20031;-69
2022/07/10 02:31:29;;;;;;;1213.45;471.30;;;;;;;;;;5132086;27;20317;-69
2022/07/10 02:33:55;;;;;;;1229.20;485.42;;;;;;;;;;5111345;28;20023;-70
2022/07/10 02:38:01;;;;;;;1244.70;474.30;;;;;;;;;;5112036;27;20910;-70
2022/07/10 02:40:27;;;;;;;1244.07;481.70;;;;;;;;;;5111569;28;20050;-70
2022/07/10 02:42:53;;;;;;;1240.28;478.73;;;;;;;;;;5111017;28;20019;-70
2022/07/10 02:45:19;;;;;;;1234.97;481.85;;;;;;;;;;5111329;28;20430;-70
2022/07/10 02:47:46;;;;;;;1214.18;492.70;;;;;;;;;;5111249;28;20048;-71
2022/07/10 02:50:12;;;;;;;1223.60;494.00;;;;;;;;;;5110838;28;20020;-70
2022/07/10 02:53:08;;;;;;;1213.50;477.83;;;;;;;;;;5111501;27;20412;-69
2022/07/10 02:55:34;;;;;;;1247.32;576.97;;;;;;;;;;5109726;28;20686;-69
2022/07/10 02:58:01;;;;;;;1132.38;562.75;;;;;;;;;;5111321;28;20020;-70
2022/07/10 03:01:12;;;;;;;1196.97;509.40;;;;;;;;;;5070911;28;20419;-69
2022/07/10 03:05:36;;;;;;;1182.40;510.95;;;;;;;;;;5112167;27;20420;-69
2022/07/10 03:15:49;;;;;;;1184.68;490.55;;;;;;;;;;5111441;27;20416;-70
2022/07/10 03:18:15;;;;;;;1183.13;507.58;;;;;;;;;;5109689;28;20032;-69
2022/07/10 03:20:42;;;;;;;1175.93;511.35;;;;;;;;;;5111605;28;20472;-69
2022/07/10 03:23:08;;;;;;;1143.57;531.00;;;;;;;;;;5111237;28;20020;-69
2022/07/10 03:25:35;;;;;;;1159.25;519.35;;;;;;;;;;5109595;28;20024;-69
2022/07/10 03:28:01;;;;;;;1163.20;524.38;;;;;;;;;;5111302;28;20023;-70
2022/07/10 03:32:55;;;;;;;1212.63;486.20;;;;;;;;;;5112133;27;20412;-70
2022/07/10 03:36:13;;;;;;;1198.07;492.58;;;;;;;;;;5112154;27;20472;-69
2022/07/10 03:39:36;;;;;;;1181.43;510.92;;;;;;;;;;5110798;27;20473;-70
2022/07/10 03:42:02;;;;;;;1222.38;480.98;;;;;;;;;;5111401;28;20035;-70
2022/07/10 03:50:02;;;;;;;1205.13;478.80;;;;;;;;;;5111519;27;20920;-71
2022/07/10 03:52:29;;;;;;;1219.18;459.60;;;;;;;;;;5109626;28;20032;-71
2022/07/10 03:54:55;;;;;;;1256.78;466.38;;;;;;;;;;5111661;28;20055;-71
2022/07/10 04:00:15;;;;;;;1213.68;465.67;;;;;;;;;;5111009;27;20485;-70
2022/07/10 04:04:12;;;;;;;1245.13;431.65;;;;;;;;;;5111844;27;20420;-70
2022/07/10 04:06:39;;;;;;;1208.95;464.10;;;;;;;;;;5109669;28;20051;-71
2022/07/10 04:09:05;;;;;;;1175.28;489.92;;;;;;;;;;5111291;28;20028;-70
2022/07/10 04:12:29;;;;;;;1186.97;473.85;;;;;;;;;;5112165;27;20416;-70
2022/07/10 04:19:46;;;;;;;1179.88;466.92;;;;;;;;;;5111302;27;20424;-70
2022/07/10 04:22:12;;;;;;;1130.22;419.23;;;;;;;;;;5110124;28;20024;-70
2022/07/10 04:26:57;;;;;;;1103.13;529.17;;;;;;;;;;5173534;27;20306;-70
2022/07/10 04:31:15;;;;;;;1180.07;505.83;;;;;;;;;;5111846;27;20469;-71
2022/07/10 04:33:41;;;;;;;1206.20;487.17;;;;;;;;;;5111288;28;20027;-70
2022/07/10 04:36:07;;;;;;;1247.50;457.20;;;;;;;;;;5109991;28;20088;-70
2022/07/10 04:39:09;;;;;;;1267.20;446.35;;;;;;;;;;5111889;27;20317;-71
2022/07/10 04:42:39;;;;;;;1312.13;450.67;;;;;;;;;;5111101;27;20416;-71
2022/07/10 04:45:05;;;;;;;1289.63;422.30;;;;;;;;;;5111403;28;20027;-70
2022/07/10 04:47:32;;;;;;;1345.90;444.30;;;;;;;;;;5111360;28;20409;-71
2022/07/10 04:49:58;;;;;;;1276.55;436.42;;;;;;;;;;5110936;28;20440;-71
2022/07/10 04:52:24;;;;;;;1311.43;422.92;;;;;;;;;;5111250;28;20480;-71
2022/07/10 04:56:55;;;;;;;1311.47;450.33;;;;;;;;;;5111121;27;20412;-70
2022/07/10 05:02:59;;;;;;;1315.72;422.77;;;;;;;;;;5111220;27;20784;-70
2022/07/10 05:06:15;;;;;;;1230.43;474.60;;;;;;;;;;5111587;27;20455;-71
2022/07/10 05:10:09;;;;;;;1117.75;469.65;;;;;;;;;;5111283;27;20481;-70
2022/07/10 05:12:35;;;;;;;1036.65;488.10;;;;;;;;;;5110087;28;20028;-70
2022/07/10 05:15:02;;;;;;;1065.03;478.42;;;;;;;;;;5111282;28;20031;-70
2022/07/10 05:17:28;;;;;;;1080.78;468.30;;;;;;;;;;5109573;28;20077;-70
2022/07/10 05:19:57;;;;;;;1118.65;481.45;;;;;;;;;;5111300;28;20051;-70
2022/07/10 05:22:23;;;;;;;1071.95;477.02;;;;;;;;;;5111334;28;20045;-70
2022/07/10 05:24:49;;;;;;;1041.40;483.13;;;;;;;;;;5109522;28;20023;-70
2022/07/10 05:27:19;;;;;;;986.47;504.25;;;;;;;;;;5111363;28;20031;-71
2022/07/10 05:31:18;;;;;;;957.78;506.02;;;;;;;;;;5111341;27;20481;-72
2022/07/10 05:33:44;;;;;;;837.00;497.02;;;;;;;;;;5110066;28;20373;-73
2022/07/10 05:36:10;;;;;;;836.67;495.02;;;;;;;;;;5109953;28;20491;-72
2022/07/10 05:38:37;;;;;;;1157.20;468.77;;;;;;;;;;5110837;28;20480;-72
2022/07/10 05:41:52;;;;;;;961.28;513.80;;;;;;;;;;5111805;27;20907;-71
2022/07/10 05:44:19;;;;;;;939.90;509.27;;;;;;;;;;5110824;28;20024;-70
2022/07/10 05:52:28;;;;;;;1157.90;476.25;;;;;;;;;;5111230;27;20472;-70
2022/07/10 05:56:58;;;;;;;1220.85;461.05;;;;;;;;;;5111592;27;20408;-72
2022/07/10 06:00:05;;;;;;;1177.20;472.00;;;;;;;;;;5111135;27;20412;-70
2022/07/10 06:02:31;;;;;;;1219.45;443.98;;;;;;;;;;5111332;28;20468;-70
2022/07/10 06:05:31;;;;;;;1205.78;469.80;;;;;;;;;;5111064;27;20412;-70
2022/07/10 06:10:39;;;;;;;1269.60;427.63;;;;;;;;;;5111397;27;20481;-70
2022/07/10 06:13:06;;;;;;;1273.25;455.20;;;;;;;;;;5110969;28;20036;-71
2022/07/10 06:17:25;;;;;;;1059.80;451.30;;;;;;;;;;5111339;27;20428;-70
2022/07/10 06:19:51;;;;;;;1151.15;459.55;;;;;;;;;;5109570;28;20024;-71
2022/07/10 06:22:33;;;;;;;1258.28;455.20;;;;;;;;;;5111291;28;20434;-71
2022/07/10 06:25:00;;;;;;;1238.68;431.25;;;;;;;;;;5111416;28;20020;-71
2022/07/10 06:27:26;;;;;;;1244.00;445.92;;;;;;;;;;5110760;28;20055;-70
2022/07/10 06:29:52;;;;;;;1242.78;442.67;;;;;;;;;;5111173;28;20098;-71
2022/07/10 06:32:19;;;;;;;1284.72;453.38;;;;;;;;;;5109800;28;20456;-71
2022/07/10 06:34:45;;;;;;;1266.70;455.33;;;;;;;;;;5110733;28;20498;-71
2022/07/10 06:37:11;;;;;;;1215.35;455.92;;;;;;;;;;5109739;28;20032;-71
2022/07/10 06:39:37;;;;;;;1219.45;458.17;;;;;;;;;;5111114;28;20094;-72
2022/07/10 06:42:04;;;;;;;1230.55;457.08;;;;;;;;;;5110521;28;20049;-71
2022/07/10 06:44:30;;;;;;;1262.35;466.77;;;;;;;;;;5110876;28;20024;-71
2022/07/10 06:51:26;;;;;;;1169.07;470.95;;;;;;;;;;5112136;27;20477;-71
2022/07/10 06:53:52;;;;;;;1149.00;482.85;;;;;;;;;;5110342;28;20422;-71
2022/07/10 06:56:19;;;;;;;1134.20;471.67;;;;;;;;;;5110941;28;20031;-71
2022/07/10 06:59:05;;;;;;;1245.10;451.15;;;;;;;;;;5111712;27;20412;-72
2022/07/10 07:01:31;;;;;;;1237.07;473.17;;;;;;;;;;5111047;28;20024;-71
2022/07/10 07:07:19;;;;;;;1199.70;465.58;;;;;;;;;;5111993;27;20393;-71
2022/07/10 07:16:38;;;;;;;1215.00;527.75;;;;;;;;;;5111278;27;20400;-70
2022/07/10 07:19:05;;;;;;;1211.85;546.28;;;;;;;;;;5111361;28;20103;-71
2022/07/10 07:24:19;;;;;;;1205.15;540.95;;;;;;;;;;5111177;28;20438;-70
2022/07/10 07:26:48;;;;;;;1226.60;524.78;;;;;;;;;;5111504;28;20103;-70
2022/07/10 07:29:15;;;;;;;1235.50;521.55;;;;;;;;;;5109907;28;20483;-71
2022/07/10 07:31:41;;;;;;;1177.32;538.63;;;;;;;;;;5110387;28;20031;-71
2022/07/10 07:35:16;;;;;;;1219.50;540.97;;;;;;;;;;5111649;27;20415;-72
2022/07/10 07:37:43;;;;;;;1197.82;529.60;;;;;;;;;;5109554;28;20089;-71
2022/07/10 07:41:37;;;;;;;1209.88;536.53;;;;;;;;;;5111513;27;20420;-71
2022/07/10 07:45:53;;;;;;;1213.55;525.75;;;;;;;;;;5111244;27;20493;-70
2022/07/10 07:48:19;;;;;;;1240.50;506.45;;;;;;;;;;5111286;28;20055;-70
2022/07/10 07:50:45;;;;;;;1237.60;512.00;;;;;;;;;;5110923;28;20020;-71
2022/07/10 07:53:12;;;;;;;1279.82;484.08;;;;;;;;;;5111329;28;20027;-71
2022/07/10 07:55:38;;;;;;;1227.93;527.80;;;;;;;;;;5109844;28;20445;-70
2022/07/10 07:58:04;;;;;;;1248.07;510.95;;;;;;;;;;5110742;28;20019;-71
2022/07/10 08:00:30;;;;;;;1273.88;480.10;;;;;;;;;;5111213;28;20073;-70
2022/07/10 08:02:57;;;;;;;1301.20;462.10;;;;;;;;;;5111073;28;20464;-72
2022/07/10 08:05:23;;;;;;;1208.10;537.50;;;;;;;;;;5109201;28;20479;-72
2022/07/10 08:07:51;;;;;;;1215.63;527.60;;;;;;;;;;5111042;28;20392;-72
2022/07/10 08:10:18;;;;;;;1193.75;565.08;;;;;;;;;;5110925;28;20024;-71
2022/07/10 08:12:48;;;;;;;1184.95;560.28;;;;;;;;;;5110618;28;20024;-71
2022/07/10 08:15:15;;;;;;;1187.00;551.70;;;;;;;;;;5110749;28;20116;-71
2022/07/10 08:17:41;;;;;;;1184.07;572.78;;;;;;;;;;5110801;28;20454;-71
2022/07/10 08:20:10;;;;;;;1209.43;537.97;;;;;;;;;;5110294;28;20069;-72
2022/07/10 08:22:37;;;;;;;1202.80;540.65;;;;;;;;;;5111042;28;20020;-72
2022/07/10 08:25:03;;;;;;;1200.97;541.90;;;;;;;;;;5109257;28;20118;-72
2022/07/10 08:27:29;;;;;;;1210.50;541.75;;;;;;;;;;5110225;28;20020;-72
2022/07/10 08:29:55;;;;;;;1201.05;538.72;;;;;;;;;;5110541;28;20030;-72
2022/07/10 08:32:22;;;;;;;1223.10;508.20;;;;;;;;;;5110460;28;20530;-72
2022/07/10 08:35:06;;;;;;;1205.82;532.83;;;;;;;;;;5111179;27;20825;-71
2022/07/10 08:37:42;;;;;;;1222.43;518.38;;;;;;;;;;5111358;28;20111;-71
2022/07/10 08:41:25;;;;;;;1262.15;473.00;;;;;;;;;;5111175;27;20426;-71
2022/07/10 08:43:51;;;;;;;1228.70;456.90;;;;;;;;;;5110020;28;20089;-71
2022/07/10 08:46:18;;;;;;;1208.75;548.58;;;;;;;;;;5111495;28;20032;-71
2022/07/10 08:48:48;;;;;;;1194.60;553.30;;;;;;;;;;5110878;28;20028;-71
2022/07/10 08:52:41;;;;;;;1204.95;552.88;;;;;;;;;;5111723;27;20413;-71
2022/07/10 08:55:07;;;;;;;1202.45;552.40;;;;;;;;;;5110994;28;20020;-71
2022/07/10 09:00:19;;;;;;;1204.22;551.55;;;;;;;;;;5070758;28;20395;-71
2022/07/10 09:03:18;;;;;;;1213.15;537.53;;;;;;;;;;5110889;27;20473;-71
2022/07/10 09:05:55;;;;;;;1132.13;522.03;;;;;;;;;;5111447;27;20757;-71
2022/07/10 09:08:22;;;;;;;1148.13;523.05;;;;;;;;;;5109621;28;20055;-71
2022/07/10 09:12:27;;;;;;;2.83;1.90;;;;;;;;;;5111412;27;20828;-71
2022/07/10 09:16:50;;;;;;;382.92;341.58;;;;;;;;;;5111131;27;20469;-71
2022/07/10 09:19:26;;;;;;;3.85;1.77;;;;;;;;;;5111353;28;20028;-71
2022/07/10 09:24:23;;;;;;;953.35;712.63;;;;;;;;;;5110823;27;20843;-72
2022/07/10 09:28:42;;;;;;;3.08;1.60;;;;;;;;;;5111746;27;20392;-71
2022/07/10 09:32:37;;;;;;;1.88;1.58;;;;;;;;;;5111311;27;20717;-72
2022/07/10 09:36:07;;;;;;;5.18;1.85;;;;;;;;;;5111568;27;20458;-72
2022/07/10 09:38:46;;;;;;;3.25;1.73;;;;;;;;;;5111568;28;20035;-71
2022/07/10 09:41:14;;;;;;;2.05;1.50;;;;;;;;;;5111367;28;20016;-72
2022/07/10 09:43:46;;;;;;;6.20;1.85;;;;;;;;;;5110881;28;20020;-72
2022/07/10 09:46:13;;;;;;;851.20;739.72;;;;;;;;;;5109940;28;20384;-72
2022/07/10 09:48:39;;;;;;;1005.17;746.70;;;;;;;;;;5111088;28;20095;-72
2022/07/10 09:51:09;;;;;;;1039.38;693.97;;;;;;;;;;5110709;28;20034;-72
2022/07/10 09:53:39;;;;;;;1055.80;697.03;;;;;;;;;;5111019;28;20422;-73
2022/07/10 09:56:07;;;;;;;1095.68;672.47;;;;;;;;;;5111156;28;20023;-72
2022/07/10 09:58:35;;;;;;;1081.55;659.15;;;;;;;;;;5110706;28;20026;-72
2022/07/10 10:01:03;;;;;;;1061.43;700.63;;;;;;;;;;5110898;28;20410;-72
2022/07/10 10:03:31;;;;;;;1071.75;675.78;;;;;;;;;;5110769;28;20084;-72
2022/07/10 10:06:16;;;;;;;1095.07;652.17;;;;;;;;;;5110373;28;20054;-72
2022/07/10 10:08:49;;;;;;;1094.95;643.42;;;;;;;;;;5110780;28;20095;-72
2022/07/10 10:11:17;;;;;;;4.68;1.50;;;;;;;;;;5110641;28;20503;-72
2022/07/10 10:16:50;;;;;;;3.22;1.65;;;;;;;;;;5112012;27;20413;-72
2022/07/10 10:23:05;;;;;;;3.25;1.67;;;;;;;;;;5111902;27;20465;-72
2022/07/10 10:25:34;;;;;;;3.67;1.67;;;;;;;;;;5126723;28;20027;-72
2022/07/10 10:28:06;;;;;;;2.90;1.45;;;;;;;;;;5111347;28;20051;-73
2022/07/10 10:32:14;;;;;;;4.60;1.58;;;;;;;;;;5111818;27;20916;-72
2022/07/10 10:34:41;;;;;;;4.20;1.65;;;;;;;;;;5110910;28;20383;-71
2022/07/10 10:37:28;;;;;;;4.75;1.50;;;;;;;;;;5111481;28;20039;-72
2022/07/10 10:41:54;;;;;;;2.10;1.38;;;;;;;;;;5111691;27;20419;-72
2022/07/10 10:45:58;;;;;;;2.63;1.40;;;;;;;;;;5111864;27;20420;-72
2022/07/10 10:48:24;;;;;;;4.78;1.80;;;;;;;;;;5110987;28;20033;-71
2022/07/10 10:50:58;;;;;;;3.38;1.98;;;;;;;;;;5111223;28;20059;-72
2022/07/10 10:53:30;;;;;;;2.70;1.42;;;;;;;;;;5111435;28;20054;-72
2022/07/10 10:57:15;;;;;;;2.97;1.85;;;;;;;;;;5111604;27;20481;-71
2022/07/10 11:01:05;;;;;;;2.80;1.67;;;;;;;;;;5111621;27;20481;-71
2022/07/10 11:03:31;;;;;;;5.50;2.90;;;;;;;;;;5111414;28;20121;-72
2022/07/10 11:05:57;;;;;;;4.43;1.58;;;;;;;;;;5111307;28;20027;-71
2022/07/10 11:08:39;;;;;;;5.40;1.45;;;;;;;;;;5110793;28;20025;-71
2022/07/10 11:11:24;;;;;;;2.10;1.50;;;;;;;;;;5111264;28;20027;-71
2022/07/10 11:15:34;;;;;;;3.40;1.92;;;;;;;;;;5110980;27;20412;-72
2022/07/10 11:18:07;;;;;;;3.60;1.50;;;;;;;;;;5111443;28;20104;-72
2022/07/10 11:20:34;;;;;;;3.03;1.60;;;;;;;;;;5109987;28;20046;-71
2022/07/10 11:23:03;;;;;;;1.60;1.50;;;;;;;;;;5110911;28;20354;-71
2022/07/10 11:26:00;;;;;;;4.10;1.40;;;;;;;;;;5111310;28;20051;-71
2022/07/10 11:28:28;;;;;;;3.58;1.33;;;;;;;;;;5111197;28;20024;-71
2022/07/10 11:30:55;;;;;;;3.25;1.48;;;;;;;;;;5110734;28;20054;-71
2022/07/10 11:33:22;;;;;;;3.33;1.50;;;;;;;;;;5111050;28;20024;-71
2022/07/10 11:35:52;;;;;;;2.22;1.33;;;;;;;;;;5110921;28;20032;-72
2022/07/10 11:38:22;;;;;;;2.47;1.23;;;;;;;;;;5110980;28;20020;-72
2022/07/10 11:40:48;;;;;;;2.05;1.10;;;;;;;;;;5110865;28;20026;-72
2022/07/10 11:43:17;;;;;;;1.67;1.25;;;;;;;;;;5110511;28;20472;-72
2022/07/10 11:45:43;;;;;;;2.80;1.08;;;;;;;;;;5110788;28;20023;-71
2022/07/10 11:48:17;;;;;;;3.63;1.10;;;;;;;;;;5109526;28;20472;-72
2022/07/10 11:50:44;;;;;;;2.40;1.40;;;;;;;;;;5110528;28;20024;-73
2022/07/10 11:53:10;;;;;;;2.63;1.00;;;;;;;;;;5110667;28;20395;-71
2022/07/10 11:55:37;;;;;;;2.45;1.45;;;;;;;;;;5110607;28;20148;-71
2022/07/10 11:58:15;;;;;;;3.78;1.63;;;;;;;;;;5110136;28;20360;-72
2022/07/10 12:00:41;;;;;;;2.35;1.00;;;;;;;;;;5110616;28;20027;-71
2022/07/10 12:03:20;;;;;;;2.42;1.48;;;;;;;;;;5109159;28;20041;-71
2022/07/10 12:05:47;;;;;;;2.42;0.90;;;;;;;;;;5110037;28;20019;-72
2022/07/10 12:08:14;;;;;;;3.67;1.30;;;;;;;;;;5110586;28;20047;-71
2022/07/10 12:10:43;;;;;;;3.30;1.13;;;;;;;;;;5110749;28;20059;-72
2022/07/10 12:13:11;;;;;;;2.60;1.35;;;;;;;;;;5109607;28;20024;-71
2022/07/10 12:15:41;;;;;;;1.95;1.23;;;;;;;;;;5110180;28;20027;-72
2022/07/10 12:18:28;;;;;;;2.83;1.17;;;;;;;;;;5109889;28;20016;-72
2022/07/10 12:20:55;;;;;;;2.45;1.17;;;;;;;;;;5108959;28;20040;-72
2022/07/10 12:23:23;;;;;;;3.72;1.10;;;;;;;;;;5109900;28;20149;-72
2022/07/10 12:25:49;;;;;;;1.85;1.08;;;;;;;;;;5102177;28;20161;-72
2022/07/10 12:28:16;;;;;;;3.03;1.42;;;;;;;;;;5096492;28;20099;-72
2022/07/10 12:30:43;;;;;;;2.13;1.10;;;;;;;;;;5096430;28;20027;-72
2022/07/10 12:33:30;;;;;;;4.80;1.52;;;;;;;;;;5095762;28;20032;-73
2022/07/10 12:35:57;;;;;;;2.10;1.15;;;;;;;;;;5096359;28;20026;-73
2022/07/10 12:38:27;;;;;;;3.13;1.27;;;;;;;;;;5094989;28;20067;-73
2022/07/10 12:41:09;;;;;;;3.85;1.50;;;;;;;;;;5095827;28;20027;-73
2022/07/10 12:43:35;;;;;;;;;;;;;;;;;;5096888;28;20024;-73
2022/07/10 12:46:21;;;;;;;2.22;0.95;;;;;;;;;;5095693;28;20272;-72
2022/07/10 12:49:03;;;;;;;1.80;1.02;;;;;;;;;;5096122;28;20044;-73
2022/07/10 12:51:29;;;;;;;;;;;;;;;;;;5096398;28;20419;-73
2022/07/10 12:53:55;;;;;;;7.50;3.35;;;;;;;;;;5095294;28;20268;-72
2022/07/10 12:56:28;;;;;;;3.70;1.63;;;;;;;;;;5095735;28;20055;-72
2022/07/10 12:58:54;;;;;;;1.85;1.20;;;;;;;;;;5095777;28;20095;-72
2022/07/10 13:01:21;;;;;;;2.60;0.88;;;;;;;;;;5095450;28;20036;-73
2022/07/10 13:03:47;;;;;;;4.28;1.10;;;;;;;;;;5095729;28;20099;-73
2022/07/10 13:06:29;;;;;;;3.58;1.00;;;;;;;;;;5095714;28;20060;-73
2022/07/10 13:08:55;;;;;;;3.17;1.30;;;;;;;;;;5095256;28;20027;-73
2022/07/10 13:11:21;;;;;;;1.15;0.85;;;;;;;;;;5095766;28;20020;-73
2022/07/10 13:13:48;;;;;;;2.13;0.95;;;;;;;;;;5093988;28;20047;-73
2022/07/10 13:16:15;;;;;;;2.22;1.05;;;;;;;;;;5095257;28;20024;-73
2022/07/10 13:18:43;;;;;;;1.15;0.90;;;;;;;;;;5094219;28;20024;-73
2022/07/10 13:21:10;;;;;;;1.90;0.90;;;;;;;;;;5095175;28;20043;-73
2022/07/10 13:23:37;;;;;;;2.15;1.27;;;;;;;;;;5095399;28;20024;-73
2022/07/10 13:26:04;;;;;;;2.28;0.82;;;;;;;;;;5093977;28;20032;-73
2022/07/10 13:28:30;;;;;;;2.50;0.90;;;;;;;;;;5094869;28;20056;-72
2022/07/10 13:30:57;;;;;;;2.03;1.00;;;;;;;;;;5095184;28;20028;-72
2022/07/10 13:33:24;;;;;;;3.30;0.90;;;;;;;;;;5095059;28;20020;-72
2022/07/10 13:35:50;;;;;;;3.97;1.30;;;;;;;;;;5094764;28;20049;-72
2022/07/10 13:38:20;;;;;;;0.88;0.80;;;;;;;;;;5094075;28;20020;-72
2022/07/10 13:40:47;;;;;;;2.05;0.80;;;;;;;;;;5095595;28;20020;-72
2022/07/10 13:43:13;;;;;;;2.13;0.88;;;;;;;;;;5093315;28;20625;-72
2022/07/10 13:45:42;;;;;;;1.77;0.90;;;;;;;;;;5093669;28;20032;-72
2022/07/10 13:48:15;;;;;;;2.03;1.00;;;;;;;;;;5095186;28;20027;-72
2022/07/10 13:50:42;;;;;;;3.83;1.15;;;;;;;;;;5094497;28;20034;-72
2022/07/10 13:53:09;;;;;;;2.58;0.90;;;;;;;;;;5094595;28;20028;-72
2022/07/10 13:55:35;;;;;;;3.08;1.25;;;;;;;;;;5094992;28;20027;-72
2022/07/10 13:58:02;;;;;;;1.95;0.90;;;;;;;;;;5094342;28;20020;-72
2022/07/10 14:00:28;;;;;;;1.85;0.90;;;;;;;;;;5093438;28;20384;-72
2022/07/10 14:03:00;;;;;;;2.40;1.27;;;;;;;;;;5094596;28;20048;-72
2022/07/10 14:05:26;;;;;;;2.00;1.10;;;;;;;;;;5094225;28;20016;-72
2022/07/10 14:07:52;;;;;;;1.02;0.70;;;;;;;;;;5094784;28;20020;-72
2022/07/10 14:10:18;;;;;;;2.28;0.95;;;;;;;;;;5094392;28;20024;-73
2022/07/10 14:12:44;;;;;;;1.83;1.10;;;;;;;;;;5094123;28;20038;-72
2022/07/10 14:15:10;;;;;;;2.97;0.98;;;;;;;;;;5094231;28;20054;-72
2022/07/10 14:17:37;;;;;;;3.22;1.05;;;;;;;;;;5094442;28;20051;-72
2022/07/10 14:20:03;;;;;;;4.60;1.25;;;;;;;;;;5094345;28;20120;-71
2022/07/10 14:22:29;;;;;;;2.10;0.80;;;;;;;;;;5094239;28;20028;-71
2022/07/10 14:25:00;;;;;;;2.53;1.00;;;;;;;;;;5093824;28;20368;-71
2022/07/10 14:27:27;;;;;;;1.73;1.00;;;;;;;;;;5092906;28;20024;-72
2022/07/10 14:29:53;;;;;;;2.90;1.15;;;;;;;;;;5092913;28;20039;-72
2022/07/10 14:32:20;;;;;;;2.15;1.05;;;;;;;;;;5092360;28;20016;-72
2022/07/10 14:34:46;;;;;;;2.17;0.90;;;;;;;;;;5094264;28;20105;-72
2022/07/10 14:37:12;;;;;;;2.47;0.90;;;;;;;;;;5092691;28;20027;-72
2022/07/10 14:39:39;;;;;;;0.77;0.60;;;;;;;;;;5092298;28;20028;-72
2022/07/10 14:42:05;;;;;;;2.97;1.23;;;;;;;;;;5093928;28;20024;-72
2022/07/10 14:44:33;;;;;;;1.95;0.93;;;;;;;;;;5092667;28;20042;-72
2022/07/10 14:46:59;;;;;;;2.30;1.25;;;;;;;;;;5093413;28;20023;-72
2022/07/10 14:49:25;;;;;;;1.40;1.00;;;;;;;;;;5093467;28;20075;-72
2022/07/10 14:51:51;;;;;;;1.48;0.98;;;;;;;;;;5094284;28;20020;-71
2022/07/10 14:54:17;;;;;;;1.73;1.10;;;;;;;;;;5092115;28;20518;-72
2022/07/10 14:56:44;;;;;;;2.70;1.05;;;;;;;;;;5092425;28;20024;-71
2022/07/10 14:59:10;;;;;;;3.05;1.00;;;;;;;;;;5093647;28;20028;-72
2022/07/10 15:01:36;;;;;;;1.60;0.90;;;;;;;;;;5093270;28;20028;-72
2022/07/10 15:04:02;;;;;;;3.63;1.45;;;;;;;;;;5093566;28;20035;-72
2022/07/10 15:06:29;;;;;;;2.08;1.00;;;;;;;;;;5093618;28;20024;-72
2022/07/10 15:08:55;;;;;;;2.08;1.00;;;;;;;;;;5093246;28;20020;-72
2022/07/10 15:11:22;;;;;;;1.35;0.90;;;;;;;;;;5093547;28;20016;-72
2022/07/10 15:13:53;;;;;;;1.20;0.80;;;;;;;;;;5091838;28;20051;-72
2022/07/10 15:16:19;;;;;;;1.45;1.10;;;;;;;;;;5093562;28;20098;-72
2022/07/10 15:18:45;;;;;;;1.75;1.02;;;;;;;;;;5093582;28;20483;-72
2022/07/10 15:21:12;;;;;;;2.13;0.90;;;;;;;;;;5093067;28;20024;-72
2022/07/10 15:23:38;;;;;;;2.80;1.15;;;;;;;;;;5093494;28;20036;-72
2022/07/10 15:26:06;;;;;;;6.05;1.40;;;;;;;;;;5093485;28;20016;-72
2022/07/10 15:28:32;;;;;;;1.35;0.90;;;;;;;;;;5093089;28;20016;-72
2022/07/10 15:30:58;;;;;;;2.63;1.02;;;;;;;;;;5093446;28;20020;-72
2022/07/10 15:33:24;;;;;;;2.58;1.25;;;;;;;;;;5093377;28;20035;-72
2022/07/10 15:35:50;;;;;;;4.68;1.23;;;;;;;;;;5091618;28;20032;-72
2022/07/10 15:38:17;;;;;;;1.73;0.70;;;;;;;;;;5092034;28;20024;-72
2022/07/10 15:40:43;;;;;;;2.17;1.05;;;;;;;;;;5091996;28;20119;-72
2022/07/10 15:43:09;;;;;;;2.03;1.00;;;;;;;;;;5091605;28;20024;-73
2022/07/10 15:45:35;;;;;;;2.28;0.90;;;;;;;;;;5093254;28;20099;-73
2022/07/10 15:48:01;;;;;;;3.30;1.10;;;;;;;;;;5093256;28;20567;-73
2022/07/10 15:50:27;;;;;;;1.58;0.80;;;;;;;;;;5091553;28;20029;-73
2022/07/10 15:52:53;;;;;;;2.60;1.13;;;;;;;;;;5093194;28;20039;-73
2022/07/10 15:55:19;;;;;;;2.78;0.85;;;;;;;;;;5093054;28;20047;-73
2022/07/10 15:57:46;;;;;;;1.98;1.35;;;;;;;;;;5092843;28;20051;-72
2022/07/10 16:00:12;;;;;;;2.65;0.90;;;;;;;;;;5093430;28;20024;-72
2022/07/10 16:02:38;;;;;;;1.70;0.77;;;;;;;;;;5095519;28;20028;-73
2022/07/10 16:05:04;;;;;;;0.93;0.73;;;;;;;;;;5096500;28;20024;-73
2022/07/10 16:07:31;;;;;;;2.92;0.80;;;;;;;;;;5096883;28;20051;-72
2022/07/10 16:09:57;;;;;;;1.73;0.70;;;;;;;;;;5096555;28;20027;-73
2022/07/10 16:12:23;;;;;;;1.20;0.90;;;;;;;;;;5096822;28;20028;-72
2022/07/10 16:14:50;;;;;;;1.85;0.90;;;;;;;;;;5096580;28;20048;-72
2022/07/10 16:17:16;;;;;;;1.60;0.70;;;;;;;;;;5095160;28;20385;-72
2022/07/10 16:19:45;;;;;;;1.27;0.88;;;;;;;;;;5096610;28;20071;-72
2022/07/10 16:22:11;;;;;;;1.35;0.80;;;;;;;;;;5095268;28;20476;-72
2022/07/10 16:25:56;;;;;;;2.42;1.25;;;;;;;;;;5094827;28;20039;-72
2022/07/10 16:27:23;;;;;;;4.13;1.35;;;;;;;;;;5096256;28;20445;-73
2022/07/10 16:32:26;;;;;;;3.83;1.23;;;;;;;;;;5111241;27;20410;-71
2022/07/10 16:34:52;;;;;;;4.00;1.10;;;;;;;;;;5111315;28;20027;-72
2022/07/10 16:37:19;;;;;;;1.85;1.10;;;;;;;;;;5111279;28;20020;-72
2022/07/10 16:39:45;;;;;;;1.85;1.05;;;;;;;;;;5110810;28;20549;-72
2022/07/10 16:42:11;;;;;;;1.75;1.08;;;;;;;;;;5111218;28;20533;-72
2022/07/10 16:44:37;;;;;;;1.63;1.17;;;;;;;;;;5111106;28;20015;-72
2022/07/10 16:47:03;;;;;;;2.83;1.30;;;;;;;;;;5109377;28;20015;-72
2022/07/10 16:49:29;;;;;;;7.82;2.90;;;;;;;;;;5111075;28;20050;-72
2022/07/10 16:51:56;;;;;;;5.47;2.47;;;;;;;;;;5111030;28;20032;-72